createdAt,value
2023-02-04T04:41:12.852Z,97946.28
2023-02-04T04:43:41.125Z,97948.45
2023-02-04T04:46:09.409Z,97949.91
2023-02-04T04:48:37.881Z,97950.98
2023-02-04T04:51:06.372Z,97950.67
2023-02-04T04:53:34.862Z,97951.27
2023-02-04T04:56:03.427Z,97955.45
2023-02-04T04:58:31.735Z,97957.73
2023-02-04T05:01:00.235Z,97965.33
2023-02-04T05:03:28.762Z,97968.55
2023-02-04T05:05:57.798Z,97968.73
2023-02-04T05:08:26.141Z,97970.39
2023-02-04T05:16:25.938Z,97980.89
2023-02-04T05:18:54.195Z,97985.52
2023-02-04T05:21:22.412Z,97987.83
2023-02-04T05:26:36.600Z,97993.29
2023-02-04T05:29:05.502Z,97997.65
2023-02-04T05:31:34.413Z,98001.05
2023-02-04T05:34:05.916Z,98003.05
2023-02-04T05:36:34.229Z,98003.33
2023-02-04T05:39:02.352Z,98005.99
2023-02-04T05:41:32.105Z,98012.59
2023-02-04T05:44:00.214Z,98016.71
2023-02-04T05:46:28.414Z,98018.86
2023-02-04T05:48:59.133Z,98024.23
2023-02-04T05:51:27.132Z,98025.67
2023-02-04T05:53:55.181Z,98026.80
2023-02-04T05:56:23.295Z,98029.51
2023-02-04T05:58:51.685Z,98032.98
2023-02-04T06:01:19.741Z,98037.04
2023-02-04T06:03:47.805Z,98037.31
2023-02-04T06:06:15.809Z,98039.86
2023-02-04T06:08:43.933Z,98042.24
2023-02-04T06:11:12.778Z,98049.25
2023-02-04T06:13:41.138Z,98051.79
2023-02-04T06:16:09.201Z,98053.48
2023-02-04T06:18:37.887Z,98060.19
2023-02-04T06:21:05.949Z,98065.91
2023-02-04T06:23:34.726Z,98071.42
2023-02-04T06:26:02.966Z,98076.32
2023-02-04T06:28:31.132Z,98078.06
2023-02-04T13:40:16.036Z,98541.52
2023-02-04T13:42:44.403Z,98546.42
2023-02-04T13:45:18.977Z,98553.31
2023-02-04T13:47:48.845Z,98559.03
2023-02-04T13:50:17.102Z,98566.84
2023-02-04T13:52:45.524Z,98571.48
2023-02-04T13:55:16.164Z,98576.15
2023-02-04T13:57:44.835Z,98574.97
2023-02-04T14:00:13.436Z,98574.14
2023-02-04T14:02:44.927Z,98575.11
2023-02-04T14:05:13.527Z,98578.51
2023-02-04T14:07:42.243Z,98582.92
2023-02-04T14:10:11.672Z,98590.40
2023-02-04T14:12:42.164Z,98591.27
2023-02-04T14:15:27.834Z,98595.63
2023-02-04T14:17:56.083Z,98599.77
2023-02-04T14:20:24.116Z,98599.48
2023-02-04T14:22:52.269Z,98608.91
2023-02-04T14:25:20.919Z,98607.89
2023-02-04T14:27:50.214Z,98608.70
2023-02-04T14:30:23.225Z,98612.43
2023-02-04T14:37:43.774Z,98616.33
2023-02-04T21:41:00.706Z,99024.14
2023-02-04T21:43:29.438Z,99022.75
2023-02-04T21:45:59.166Z,99022.66
2023-02-04T21:48:27.677Z,99025.41
2023-02-04T21:50:57.128Z,99027.45
2023-02-04T21:53:25.603Z,99031.20
2023-02-04T21:55:59.248Z,99033.75
2023-02-04T21:58:27.790Z,99034.73
2023-02-04T22:00:56.476Z,99036.19
2023-02-04T22:03:24.870Z,99036.45
2023-02-04T22:05:53.844Z,99033.84
2023-02-04T22:08:22.096Z,99032.33
2023-02-04T22:10:52.747Z,99031.86
2023-02-04T22:13:47.824Z,99032.25
2023-02-04T22:19:03.971Z,99037.71
2023-02-04T22:21:34.892Z,99040.26
2023-02-04T22:24:03.585Z,99044.86
2023-02-04T22:26:33.705Z,99039.77
2023-02-04T22:29:02.080Z,99040.25
2023-02-04T22:31:31.748Z,99046.23
2023-02-04T22:34:00.278Z,99046.27
2023-02-04T22:36:28.963Z,99043.41
2023-02-04T22:38:57.339Z,99047.30
2023-02-04T22:41:25.585Z,99050.98
2023-02-04T22:43:53.818Z,99053.48
2023-02-04T22:46:21.999Z,99054.95
2023-02-04T22:48:50.544Z,99055.73
2023-02-04T22:51:18.818Z,99058.94
2023-02-04T22:53:47.205Z,99058.47
2023-02-04T22:56:15.507Z,99060.09
2023-02-04T22:58:44.050Z,99061.02
2023-02-04T23:01:12.380Z,99067.50
2023-02-04T23:03:41.065Z,99068.70
2023-02-04T23:06:09.777Z,99072.79
2023-02-04T23:08:38.898Z,99073.52
2023-02-04T23:11:07.480Z,99074.22
2023-02-04T23:13:36.521Z,99076.96
2023-02-04T23:16:06.722Z,99079.70
2023-02-04T23:18:35.274Z,99078.89
2023-02-04T23:21:05.598Z,99080.09
2023-02-04T23:23:34.891Z,99085.35
2023-02-04T23:26:04.141Z,99088.56
2023-02-04T23:28:33.183Z,99084.84
2023-02-04T23:31:01.991Z,99086.84
2023-02-04T23:33:30.869Z,99089.85
2023-02-04T23:35:59.438Z,99087.64
2023-02-04T23:38:27.733Z,99084.97
2023-02-04T23:40:58.668Z,99084.82
2023-02-04T23:43:27.538Z,99083.62
2023-02-04T23:45:57.382Z,99091.91
2023-02-04T23:48:25.653Z,99093.27
2023-02-04T23:50:57.312Z,99096.17
2023-02-04T23:53:26.717Z,99100.77
2023-02-04T23:55:58.049Z,99104.38
2023-02-04T23:58:26.387Z,99103.23
